YBMA

Mount Isa Airport

Airport
ICAO code
YBMA
IATA Code
ISA
Summary
ICAO Region
APAC
ICAO Territory
Location

Mount Isa, Queensland

Serving
Mount Isa
Elevation
1121 ft
Coordinates
20° 40' 4" S , 139° 29' 30" E
Metar
YBMA 221600Z AUTO 07005KT 9999 // NCD 24/20 Q1011 RF00.0/001.6

Airport map

Aerial View

SKYbrary Partners:

Safety knowledge contributed by: